createdAt,value
2017-09-22T00:01:52.342Z,13.98
2017-09-22T00:04:20.657Z,13.85
2017-09-22T00:06:48.983Z,13.87
2017-09-22T00:09:18.098Z,13.91
2017-09-22T00:11:46.422Z,13.89
2017-09-22T00:14:14.734Z,13.93
2017-09-22T00:16:43.826Z,13.93
2017-09-22T00:19:12.899Z,13.97
2017-09-22T00:21:41.262Z,13.99
2017-09-22T00:24:09.564Z,13.96
2017-09-22T00:26:37.861Z,13.92
2017-09-22T00:29:06.941Z,13.95
2017-09-22T00:31:35.254Z,13.93
2017-09-22T00:34:03.574Z,14.00
2017-09-22T00:36:31.868Z,14.06
2017-09-22T00:39:00.190Z,14.09
2017-09-22T00:41:28.494Z,14.11
2017-09-22T00:43:56.800Z,14.15
2017-09-22T00:46:25.114Z,14.18
2017-09-22T00:48:53.454Z,14.25
2017-09-22T00:51:21.750Z,14.24
2017-09-22T00:53:50.812Z,14.23
2017-09-22T00:56:19.121Z,14.25
2017-09-22T00:58:48.185Z,14.13
2017-09-22T01:01:16.511Z,14.08
2017-09-22T01:03:44.904Z,14.09
2017-09-22T01:06:13.235Z,14.17
2017-09-22T01:08:41.545Z,14.21
2017-09-22T01:11:09.892Z,14.25
2017-09-22T01:13:38.218Z,14.24
2017-09-22T01:16:06.526Z,14.19
2017-09-22T01:18:34.870Z,14.13
2017-09-22T01:21:03.164Z,14.20
2017-09-22T01:23:31.480Z,14.09
2017-09-22T01:26:00.558Z,14.02
2017-09-22T01:28:28.877Z,14.08
2017-09-22T01:30:57.191Z,14.07
2017-09-22T01:33:25.540Z,14.06
2017-09-22T01:35:53.867Z,14.12
2017-09-22T01:38:22.186Z,14.12
2017-09-22T01:40:50.585Z,14.11
2017-09-22T01:43:18.896Z,14.19
2017-09-22T01:45:47.209Z,14.12
2017-09-22T01:48:15.527Z,14.17
2017-09-22T01:50:43.867Z,14.18
2017-09-22T01:53:12.937Z,14.17
2017-09-22T01:55:41.262Z,14.09
2017-09-22T01:58:09.570Z,14.00
2017-09-22T02:00:37.885Z,13.98
2017-09-22T02:03:06.964Z,14.04
2017-09-22T02:05:35.286Z,14.04
2017-09-22T02:08:03.628Z,14.08
2017-09-22T02:10:31.985Z,14.03
2017-09-22T02:13:00.389Z,13.96
2017-09-22T02:15:28.676Z,13.96
2017-09-22T02:17:57.758Z,13.91
2017-09-22T02:20:26.851Z,13.96
2017-09-22T02:22:55.274Z,13.94
2017-09-22T02:25:23.578Z,14.04
2017-09-22T02:27:51.888Z,14.08
2017-09-22T02:30:20.214Z,13.96
2017-09-22T02:32:48.529Z,13.98
2017-09-22T02:35:16.853Z,13.94
2017-09-22T02:37:45.173Z,13.82
2017-09-22T02:40:13.581Z,13.82
2017-09-22T02:42:42.665Z,13.82
2017-09-22T02:45:11.048Z,13.90
2017-09-22T02:47:39.374Z,14.00
2017-09-22T02:50:07.683Z,14.08
2017-09-22T02:52:36.042Z,14.06
2017-09-22T02:55:04.328Z,14.01
2017-09-22T02:57:32.649Z,13.80
2017-09-22T03:00:01.718Z,13.75
2017-09-22T03:02:30.036Z,13.63
2017-09-22T03:04:58.350Z,13.63
2017-09-22T03:07:26.674Z,13.62
2017-09-22T03:09:55.745Z,13.60
2017-09-22T03:12:24.049Z,13.57
2017-09-22T03:14:53.125Z,13.56
2017-09-22T03:17:21.440Z,13.53
2017-09-22T03:19:49.758Z,13.54
2017-09-22T03:22:18.106Z,13.55
2017-09-22T03:24:46.417Z,13.55
2017-09-22T03:27:14.730Z,13.55
2017-09-22T03:29:43.810Z,13.51
2017-09-22T03:32:12.120Z,13.54
2017-09-22T03:34:40.513Z,13.53
2017-09-22T03:37:08.821Z,13.47
2017-09-22T03:39:37.154Z,13.53
2017-09-22T03:42:05.471Z,13.59
2017-09-22T03:44:33.782Z,13.60
2017-09-22T03:47:03.570Z,13.63
2017-09-22T03:49:31.878Z,13.70
2017-09-22T03:52:00.967Z,13.53
2017-09-22T03:54:30.047Z,13.56
2017-09-22T03:56:58.390Z,13.50
2017-09-22T03:59:26.721Z,13.61
2017-09-22T04:01:55.798Z,13.64
2017-09-22T04:04:24.130Z,13.64
2017-09-22T04:06:52.443Z,13.55
2017-09-22T04:09:20.769Z,13.55
2017-09-22T04:11:49.085Z,13.60
2017-09-22T04:14:17.419Z,13.65
2017-09-22T04:16:45.733Z,13.62
2017-09-22T04:19:14.075Z,13.57
2017-09-22T04:21:42.391Z,13.57
2017-09-22T04:24:10.707Z,13.62
2017-09-22T04:26:39.039Z,13.57
2017-09-22T04:29:07.403Z,13.53
2017-09-22T04:31:35.727Z,13.57
2017-09-22T04:34:04.055Z,13.62
2017-09-22T04:36:32.377Z,13.66
2017-09-22T04:39:00.685Z,13.69
2017-09-22T04:41:29.791Z,13.67
2017-09-22T04:43:58.098Z,13.82
2017-09-22T04:46:26.432Z,13.85
2017-09-22T04:48:55.513Z,13.81
2017-09-22T04:51:23.822Z,13.86
2017-09-22T04:53:52.142Z,13.88
2017-09-22T04:56:20.461Z,13.85
2017-09-22T04:58:49.563Z,13.87
2017-09-22T05:01:18.650Z,13.94
2017-09-22T05:03:47.750Z,14.00
2017-09-22T05:06:16.822Z,14.06
2017-09-22T05:08:45.171Z,14.07
2017-09-22T05:11:13.482Z,14.10
2017-09-22T05:13:41.789Z,14.13
2017-09-22T05:16:10.105Z,13.97
2017-09-22T05:18:38.413Z,14.10
2017-09-22T05:21:06.734Z,14.02
2017-09-22T05:23:35.046Z,13.97
2017-09-22T05:26:03.358Z,14.00
2017-09-22T05:28:32.434Z,14.16
2017-09-22T05:31:00.775Z,14.16
2017-09-22T05:33:29.084Z,14.24
2017-09-22T05:35:57.395Z,14.29
2017-09-22T05:38:26.483Z,14.14
2017-09-22T05:40:55.557Z,14.07
2017-09-22T05:43:23.870Z,14.22
2017-09-22T05:45:52.182Z,14.33
2017-09-22T05:48:20.504Z,14.49
2017-09-22T05:50:49.595Z,14.60
2017-09-22T05:53:18.707Z,14.64
2017-09-22T05:55:47.018Z,14.83
2017-09-22T05:58:15.330Z,14.74
2017-09-22T06:00:43.659Z,14.77
2017-09-22T06:03:11.972Z,14.94
2017-09-22T06:05:40.302Z,15.07
2017-09-22T06:08:08.602Z,14.97
2017-09-22T06:10:36.926Z,15.00
2017-09-22T06:13:06.006Z,15.16
2017-09-22T06:15:34.323Z,15.29
2017-09-22T06:18:02.634Z,15.31
2017-09-22T06:20:30.972Z,15.33
2017-09-22T06:23:00.043Z,15.39
2017-09-22T06:25:28.350Z,15.48
2017-09-22T06:27:57.426Z,15.55
2017-09-22T06:30:26.406Z,15.54
2017-09-22T06:32:54.717Z,15.72
2017-09-22T06:35:23.018Z,15.92
2017-09-22T06:37:51.333Z,15.67
2017-09-22T06:40:19.642Z,15.77
2017-09-22T06:42:48.739Z,15.89
2017-09-22T06:45:17.814Z,15.81
2017-09-22T06:47:46.117Z,15.92
2017-09-22T06:50:14.429Z,15.85
2017-09-22T06:52:42.734Z,15.80
2017-09-22T06:55:11.054Z,16.17
2017-09-22T06:57:39.370Z,16.17
2017-09-22T07:00:07.690Z,16.30
2017-09-22T07:02:36.758Z,16.56
2017-09-22T07:05:05.078Z,16.51
2017-09-22T07:07:33.386Z,16.72
2017-09-22T07:10:01.713Z,16.57
2017-09-22T07:12:31.050Z,16.44
2017-09-22T07:14:59.386Z,16.55
2017-09-22T07:17:27.691Z,16.48
2017-09-22T07:19:56.013Z,16.79
2017-09-22T07:22:24.417Z,17.07
2017-09-22T07:24:52.778Z,17.30
2017-09-22T07:27:21.153Z,17.55
2017-09-22T07:29:49.457Z,17.60
2017-09-22T07:32:18.626Z,17.68
2017-09-22T07:34:46.931Z,18.08
2017-09-22T07:37:16.013Z,18.74
2017-09-22T07:39:45.914Z,18.64
2017-09-22T07:42:14.230Z,18.22
2017-09-22T07:44:43.390Z,18.85
2017-09-22T07:47:11.719Z,18.59
2017-09-22T07:49:40.034Z,18.41
2017-09-22T07:52:08.369Z,18.59
2017-09-22T07:54:36.689Z,18.68
2017-09-22T07:57:05.005Z,18.85
2017-09-22T07:59:34.086Z,18.55
2017-09-22T08:02:02.394Z,19.00
2017-09-22T08:04:30.733Z,19.07
2017-09-22T08:06:59.167Z,18.77
2017-09-22T08:09:27.481Z,18.71
2017-09-22T08:11:55.794Z,18.55
2017-09-22T08:14:24.901Z,18.67
2017-09-22T08:16:53.228Z,18.50
2017-09-22T08:19:21.543Z,18.43
2017-09-22T08:21:50.657Z,18.21
2017-09-22T08:24:18.970Z,18.16
2017-09-22T08:26:47.294Z,18.59
2017-09-22T08:29:16.370Z,18.85
2017-09-22T08:31:44.685Z,19.04
2017-09-22T08:34:13.000Z,19.09
2017-09-22T08:36:41.314Z,18.91
2017-09-22T08:39:09.617Z,19.27
2017-09-22T08:41:37.940Z,18.99
2017-09-22T08:44:06.254Z,18.87
2017-09-22T08:46:35.458Z,18.99
2017-09-22T08:49:04.617Z,19.01
2017-09-22T08:51:33.694Z,18.84
2017-09-22T08:54:02.084Z,18.82
2017-09-22T08:56:31.275Z,18.79
2017-09-22T08:58:59.593Z,18.81
2017-09-22T09:01:27.898Z,18.82
2017-09-22T09:03:56.259Z,18.92
2017-09-22T09:06:24.582Z,19.15
2017-09-22T09:08:52.935Z,19.21
2017-09-22T09:11:22.021Z,19.35
2017-09-22T09:13:50.344Z,20.07
2017-09-22T09:16:18.664Z,20.97
2017-09-22T09:18:46.982Z,21.75
2017-09-22T09:21:15.302Z,22.38
2017-09-22T09:23:43.609Z,22.73
2017-09-22T09:26:11.940Z,23.57
2017-09-22T09:28:41.021Z,22.90
2017-09-22T09:31:09.337Z,21.74
2017-09-22T09:33:37.644Z,23.31
2017-09-22T09:36:05.976Z,26.10
2017-09-22T09:38:35.054Z,26.72
2017-09-22T09:41:04.149Z,25.75
2017-09-22T09:43:32.457Z,24.99
2017-09-22T09:46:00.801Z,24.84
2017-09-22T09:48:29.110Z,24.90
2017-09-22T09:50:57.413Z,24.49
2017-09-22T09:53:25.767Z,23.87
2017-09-22T09:55:54.092Z,22.80
2017-09-22T09:58:22.417Z,22.41
2017-09-22T10:00:50.723Z,22.27
2017-09-22T10:03:19.041Z,21.99
2017-09-22T10:05:47.357Z,21.66
2017-09-22T10:08:15.782Z,21.73
2017-09-22T10:10:44.094Z,22.26
2017-09-22T10:13:13.188Z,22.34
2017-09-22T10:15:42.269Z,22.35
2017-09-22T10:18:10.608Z,22.02
2017-09-22T10:20:38.948Z,22.08
2017-09-22T10:23:07.254Z,22.44
2017-09-22T10:25:35.586Z,22.39
2017-09-22T10:28:04.663Z,23.13
2017-09-22T10:30:32.977Z,23.04
2017-09-22T10:33:01.291Z,23.81
2017-09-22T10:35:29.626Z,23.71
2017-09-22T10:37:58.722Z,23.18
2017-09-22T10:40:27.824Z,22.97
2017-09-22T10:42:56.136Z,23.86
2017-09-22T10:45:24.471Z,23.99
2017-09-22T10:47:53.552Z,23.52
2017-09-22T10:50:22.659Z,23.91
2017-09-22T10:52:51.742Z,23.73
2017-09-22T10:55:20.832Z,24.04
2017-09-22T10:57:49.164Z,23.16
2017-09-22T11:00:17.478Z,24.26
2017-09-22T11:02:45.822Z,24.88
2017-09-22T11:05:14.134Z,24.25
2017-09-22T11:07:42.466Z,24.81
2017-09-22T11:10:10.781Z,23.32
2017-09-22T11:12:39.103Z,23.31
2017-09-22T11:15:07.421Z,23.02
2017-09-22T11:17:35.737Z,22.42
2017-09-22T11:20:04.822Z,22.90
2017-09-22T11:22:33.282Z,22.45
2017-09-22T11:25:01.595Z,22.46
2017-09-22T11:27:30.724Z,22.09
2017-09-22T11:29:59.042Z,21.68
2017-09-22T11:32:27.353Z,21.68
2017-09-22T11:34:56.441Z,21.79
2017-09-22T11:37:25.510Z,22.22
2017-09-22T11:39:53.838Z,22.36
2017-09-22T11:42:22.152Z,21.84
2017-09-22T11:44:50.469Z,21.70
2017-09-22T11:47:19.547Z,21.71
2017-09-22T11:49:47.866Z,21.19
2017-09-22T11:52:16.169Z,21.09
2017-09-22T11:54:44.485Z,21.12
2017-09-22T11:57:12.787Z,21.00
2017-09-22T11:59:41.132Z,20.71
2017-09-22T12:02:09.441Z,20.73
2017-09-22T12:04:37.753Z,20.94
2017-09-22T12:07:06.072Z,20.91
2017-09-22T12:09:34.380Z,20.72
2017-09-22T12:12:02.702Z,20.64
2017-09-22T12:14:31.014Z,20.57
2017-09-22T12:17:00.101Z,20.89
2017-09-22T12:19:28.414Z,21.10
2017-09-22T12:21:56.731Z,21.38
2017-09-22T12:24:25.041Z,21.49
2017-09-22T12:26:54.122Z,21.30
2017-09-22T12:29:22.990Z,21.55
2017-09-22T12:31:51.302Z,22.32
2017-09-22T12:34:20.386Z,22.35
2017-09-22T12:36:48.742Z,22.76
2017-09-22T12:39:17.054Z,22.54
2017-09-22T12:41:46.125Z,22.65
2017-09-22T12:44:14.445Z,22.81
2017-09-22T12:46:42.766Z,23.32
2017-09-22T12:49:11.086Z,23.46
2017-09-22T12:51:40.171Z,23.00
2017-09-22T12:54:09.257Z,23.03
2017-09-22T12:56:37.566Z,23.37
2017-09-22T12:59:05.907Z,22.82
2017-09-22T13:01:34.214Z,22.98
2017-09-22T13:04:03.294Z,23.25
2017-09-22T13:06:32.377Z,23.02
2017-09-22T13:09:00.682Z,22.43
2017-09-22T13:11:29.788Z,22.89
2017-09-22T13:13:58.102Z,22.62
2017-09-22T13:16:26.421Z,22.67
2017-09-22T13:18:55.505Z,22.86
2017-09-22T13:21:23.822Z,23.51
2017-09-22T13:23:52.132Z,24.15
2017-09-22T13:26:20.446Z,24.24
2017-09-22T13:28:49.534Z,24.11
2017-09-22T13:31:18.611Z,23.00
2017-09-22T13:33:46.924Z,23.19
2017-09-22T13:36:15.998Z,23.02
2017-09-22T13:38:44.314Z,22.54
2017-09-22T13:41:12.633Z,22.98
2017-09-22T13:43:40.945Z,23.22
2017-09-22T13:46:10.017Z,22.93
2017-09-22T13:48:38.614Z,22.92
2017-09-22T13:51:07.699Z,22.99
2017-09-22T13:53:36.006Z,23.00
2017-09-22T13:56:04.324Z,23.19
2017-09-22T13:58:32.634Z,22.79
2017-09-22T14:01:00.958Z,22.63
2017-09-22T14:03:29.267Z,22.47
2017-09-22T14:05:57.592Z,22.01
2017-09-22T14:08:25.922Z,22.30
2017-09-22T14:10:54.264Z,22.69
2017-09-22T14:13:22.569Z,21.96
2017-09-22T14:15:50.878Z,21.33
2017-09-22T14:18:20.790Z,21.31
2017-09-22T14:20:49.106Z,21.08
2017-09-22T14:23:17.424Z,21.13
2017-09-22T14:25:45.733Z,21.14
2017-09-22T14:28:14.814Z,20.89
2017-09-22T14:30:43.118Z,20.82
2017-09-22T14:33:11.445Z,20.66
2017-09-22T14:35:39.750Z,20.45
2017-09-22T14:38:08.087Z,20.37
2017-09-22T14:40:36.393Z,20.44
2017-09-22T14:43:04.695Z,20.39
2017-09-22T14:45:33.807Z,20.50
2017-09-22T14:48:02.861Z,20.52
2017-09-22T14:50:31.178Z,20.40
2017-09-22T14:52:59.501Z,20.44
2017-09-22T14:55:27.818Z,20.56
2017-09-22T14:57:56.897Z,20.76
2017-09-22T15:00:25.237Z,20.78
2017-09-22T15:02:53.549Z,20.82
2017-09-22T15:05:21.863Z,21.07
2017-09-22T15:07:50.183Z,21.34
2017-09-22T15:10:18.532Z,21.50
2017-09-22T15:12:46.850Z,21.25
2017-09-22T15:15:15.166Z,21.51
2017-09-22T15:17:43.484Z,21.81
2017-09-22T15:20:11.797Z,21.66
2017-09-22T15:22:40.126Z,21.54
2017-09-22T15:25:08.441Z,21.45
2017-09-22T15:27:36.782Z,21.22
2017-09-22T15:30:05.109Z,20.99
2017-09-22T15:32:33.413Z,20.84
2017-09-22T15:35:01.742Z,20.79
2017-09-22T15:37:30.054Z,20.72
2017-09-22T15:39:58.389Z,20.71
2017-09-22T15:42:26.713Z,20.81
2017-09-22T15:44:55.044Z,20.80
2017-09-22T15:47:28.791Z,20.79
2017-09-22T15:49:57.911Z,20.76
2017-09-22T15:52:26.217Z,20.79
2017-09-22T15:54:54.522Z,20.77
2017-09-22T15:57:22.851Z,20.73
2017-09-22T15:59:51.174Z,20.51
2017-09-22T16:02:19.487Z,20.38
2017-09-22T16:04:47.883Z,20.11
2017-09-22T16:07:16.209Z,19.96
2017-09-22T16:09:44.518Z,19.79
2017-09-22T16:12:12.865Z,19.66
2017-09-22T16:14:41.174Z,19.50
2017-09-22T16:17:09.482Z,19.38
2017-09-22T16:19:37.802Z,19.26
2017-09-22T16:22:06.117Z,19.13
2017-09-22T16:24:34.440Z,19.05
2017-09-22T16:27:03.358Z,18.94
2017-09-22T16:29:32.451Z,18.82
2017-09-22T16:32:01.526Z,18.67
2017-09-22T16:34:29.843Z,18.58
2017-09-22T16:36:58.147Z,18.52
2017-09-22T16:39:26.487Z,18.41
2017-09-22T16:41:55.555Z,18.30
2017-09-22T16:44:23.862Z,18.29
2017-09-22T16:46:52.947Z,18.23
2017-09-22T16:49:22.029Z,18.19
2017-09-22T16:51:50.357Z,18.24
2017-09-22T16:54:18.673Z,18.26
2017-09-22T16:56:47.011Z,18.22
2017-09-22T16:59:15.309Z,18.23
2017-09-22T17:01:43.637Z,18.06
2017-09-22T17:04:12.710Z,17.93
2017-09-22T17:06:41.010Z,18.02
2017-09-22T17:09:10.090Z,17.98
2017-09-22T17:11:39.181Z,17.91
2017-09-22T17:14:07.509Z,17.84
2017-09-22T17:16:35.824Z,17.81
2017-09-22T17:19:04.164Z,17.81
2017-09-22T17:21:32.478Z,17.70
2017-09-22T17:24:00.806Z,17.62
2017-09-22T17:26:29.117Z,17.60
2017-09-22T17:28:57.472Z,17.52
2017-09-22T17:31:25.782Z,17.51
2017-09-22T17:33:54.094Z,17.50
2017-09-22T17:36:23.178Z,17.47
2017-09-22T17:38:52.262Z,17.46
2017-09-22T17:41:20.577Z,17.50
2017-09-22T17:43:48.889Z,17.50
2017-09-22T17:46:17.206Z,17.51
2017-09-22T17:48:46.281Z,17.49
2017-09-22T17:51:14.609Z,17.48
2017-09-22T17:53:42.914Z,17.50
2017-09-22T17:56:11.262Z,17.53
2017-09-22T17:58:39.574Z,17.52
2017-09-22T18:01:07.882Z,17.43
2017-09-22T18:03:36.210Z,17.43
2017-09-22T18:06:04.521Z,17.32
2017-09-22T18:08:32.857Z,17.37
2017-09-22T18:11:01.191Z,17.36
2017-09-22T18:13:29.515Z,17.36
2017-09-22T18:15:57.835Z,17.36
2017-09-22T18:18:26.165Z,17.33
2017-09-22T18:20:54.469Z,17.32
2017-09-22T18:23:22.790Z,17.29
2017-09-22T18:25:51.863Z,17.24
2017-09-22T18:28:20.210Z,17.21
2017-09-22T18:30:48.517Z,17.17
2017-09-22T18:33:16.834Z,17.11
2017-09-22T18:35:45.940Z,17.09
2017-09-22T18:38:14.257Z,17.04
2017-09-22T18:40:42.587Z,17.01
2017-09-22T18:43:10.918Z,16.97
2017-09-22T18:45:39.263Z,16.97
2017-09-22T18:48:07.570Z,16.94
2017-09-22T18:50:35.906Z,16.93
2017-09-22T18:53:04.226Z,16.90
2017-09-22T18:55:32.545Z,16.80
2017-09-22T18:58:01.637Z,16.77
2017-09-22T19:00:30.737Z,16.70
2017-09-22T19:02:59.070Z,16.71
2017-09-22T19:05:27.378Z,16.62
2017-09-22T19:07:56.474Z,16.60
2017-09-22T19:10:25.600Z,16.53
2017-09-22T19:12:53.910Z,16.51
2017-09-22T19:15:22.238Z,16.48
2017-09-22T19:17:51.354Z,16.40
2017-09-22T19:20:19.699Z,16.35
2017-09-22T19:22:48.786Z,16.28
2017-09-22T19:25:17.098Z,16.25
2017-09-22T19:27:45.440Z,16.25
2017-09-22T19:30:13.745Z,16.23
2017-09-22T19:32:42.057Z,16.19
2017-09-22T19:35:10.382Z,16.14
2017-09-22T19:37:39.512Z,16.07
2017-09-22T19:40:07.829Z,16.00
2017-09-22T19:42:36.154Z,15.93
2017-09-22T19:45:04.512Z,15.87
2017-09-22T19:47:33.640Z,15.85
2017-09-22T19:50:01.949Z,15.78
2017-09-22T19:52:30.261Z,15.69
2017-09-22T19:54:59.354Z,15.56
2017-09-22T19:57:28.429Z,15.40
2017-09-22T19:59:56.791Z,15.24
2017-09-22T20:02:25.121Z,15.11
2017-09-22T20:04:54.235Z,15.00
2017-09-22T20:07:22.574Z,14.91
2017-09-22T20:09:50.886Z,14.85
2017-09-22T20:12:19.202Z,14.77
2017-09-22T20:14:47.527Z,14.67
2017-09-22T20:17:16.616Z,14.58
2017-09-22T20:19:45.682Z,14.52
2017-09-22T20:22:14.022Z,14.43
2017-09-22T20:24:42.342Z,14.30
2017-09-22T20:27:10.666Z,14.22
2017-09-22T20:29:38.984Z,14.12
2017-09-22T20:32:07.329Z,14.06
2017-09-22T20:34:35.634Z,14.01
2017-09-22T20:37:03.955Z,13.98
2017-09-22T20:39:33.037Z,13.95
2017-09-22T20:42:01.410Z,13.89
2017-09-22T20:44:29.774Z,13.84
2017-09-22T20:46:58.083Z,13.85
2017-09-22T20:49:27.165Z,13.85
2017-09-22T20:51:55.483Z,13.87
2017-09-22T20:54:23.799Z,13.83
2017-09-22T20:56:52.108Z,13.83
2017-09-22T20:59:20.425Z,13.82
2017-09-22T21:01:48.766Z,13.86
2017-09-22T21:04:17.089Z,13.92
2017-09-22T21:06:45.405Z,13.89
2017-09-22T21:09:14.485Z,13.85
2017-09-22T21:11:43.573Z,13.82
2017-09-22T21:14:11.883Z,13.81
2017-09-22T21:16:40.206Z,13.84
2017-09-22T21:19:08.525Z,13.86
2017-09-22T21:21:37.610Z,13.90
2017-09-22T21:24:06.685Z,13.98
2017-09-22T21:26:35.014Z,14.09
2017-09-22T21:29:03.330Z,14.11
2017-09-22T21:31:31.658Z,14.17
2017-09-22T21:33:59.974Z,14.12
2017-09-22T21:36:28.322Z,14.10
2017-09-22T21:38:56.628Z,14.05
2017-09-22T21:41:24.937Z,14.06
2017-09-22T21:43:53.270Z,14.16
2017-09-22T21:46:21.586Z,14.19
2017-09-22T21:48:49.921Z,14.26
2017-09-22T21:51:18.234Z,14.35
2017-09-22T21:53:46.558Z,14.43
2017-09-22T21:56:14.860Z,14.48
2017-09-22T21:58:43.207Z,14.50
2017-09-22T22:01:11.523Z,14.57
2017-09-22T22:03:45.454Z,14.58
2017-09-22T22:06:19.265Z,14.54
2017-09-22T22:09:07.870Z,14.34
2017-09-22T22:11:36.190Z,14.33
2017-09-22T22:14:04.534Z,14.33
2017-09-22T22:16:32.839Z,14.34
2017-09-22T22:19:01.159Z,14.35
2017-09-22T22:21:29.482Z,14.33
2017-09-22T22:23:57.793Z,14.40
2017-09-22T22:26:26.878Z,14.33
2017-09-22T22:28:55.186Z,14.28
2017-09-22T22:31:23.530Z,14.25
2017-09-22T22:33:51.847Z,14.22
2017-09-22T22:36:26.825Z,14.13
2017-09-22T22:38:55.142Z,14.24
2017-09-22T22:41:24.230Z,14.34
2017-09-22T22:43:52.557Z,14.43
2017-09-22T22:46:20.883Z,14.44
2017-09-22T22:48:49.977Z,14.46
2017-09-22T22:51:19.057Z,14.47
2017-09-22T22:53:47.383Z,14.45
2017-09-22T22:56:15.692Z,14.41
2017-09-22T22:58:44.010Z,14.45
2017-09-22T23:01:13.086Z,14.47
2017-09-22T23:03:41.410Z,14.43
2017-09-22T23:06:09.722Z,14.46
2017-09-22T23:08:38.071Z,14.32
2017-09-22T23:11:06.389Z,14.18
2017-09-22T23:13:35.122Z,14.08
2017-09-22T23:16:03.442Z,13.94
2017-09-22T23:18:31.762Z,13.91
2017-09-22T23:21:00.864Z,13.81
2017-09-22T23:23:29.177Z,13.70
2017-09-22T23:25:57.515Z,13.63
2017-09-22T23:28:26.599Z,13.48
2017-09-22T23:30:55.695Z,13.51
2017-09-22T23:33:24.814Z,13.51
2017-09-22T23:35:53.118Z,13.55
2017-09-22T23:38:21.446Z,13.63
2017-09-22T23:40:49.755Z,13.52
2017-09-22T23:43:18.078Z,13.53
2017-09-22T23:45:46.386Z,13.48
2017-09-22T23:48:15.478Z,13.43
2017-09-22T23:50:44.554Z,13.36
2017-09-22T23:53:12.879Z,13.35
2017-09-22T23:55:41.194Z,13.31
2017-09-22T23:58:09.538Z,13.32
